sensor_id;sensor_type;location;lat;lon;timestamp;P1;durP1;ratioP1;P2;durP2;ratioP2
51491;SDS011;37569;50.548;8.778;2022-10-16T00:00:39;14.7;;;12.9;;
51491;SDS011;37569;50.548;8.778;2022-10-16T00:05:40;15.2;;;13.2;;
51491;SDS011;37569;50.548;8.778;2022-10-16T00:10:40;14.5;;;11.8;;
51491;SDS011;37569;50.548;8.778;2022-10-16T00:15:41;14.4;;;12.6;;
51491;SDS011;37569;50.548;8.778;2022-10-16T00:20:41;18.6;;;13.9;;
51491;SDS011;37569;50.548;8.778;2022-10-16T00:25:42;16;;;13.1;;
51491;SDS011;37569;50.548;8.778;2022-10-16T00:30:42;14.6;;;12.7;;
51491;SDS011;37569;50.548;8.778;2022-10-16T00:35:43;14.7;;;12.8;;
51491;SDS011;37569;50.548;8.778;2022-10-16T00:40:43;14.3;;;12.2;;
51491;SDS011;37569;50.548;8.778;2022-10-16T00:45:44;15.7;;;12.5;;
51491;SDS011;37569;50.548;8.778;2022-10-16T00:50:45;14.7;;;11.6;;
51491;SDS011;37569;50.548;8.778;2022-10-16T00:55:45;13.6;;;11.9;;
51491;SDS011;37569;50.548;8.778;2022-10-16T01:00:46;12.8;;;11.5;;
51491;SDS011;37569;50.548;8.778;2022-10-16T01:05:49;13.1;;;11.1;;
51491;SDS011;37569;50.548;8.778;2022-10-16T01:10:48;14.1;;;10.3;;
51491;SDS011;37569;50.548;8.778;2022-10-16T01:15:48;11.2;;;10;;
51491;SDS011;37569;50.548;8.778;2022-10-16T01:20:49;15.5;;;9.5;;
51491;SDS011;37569;50.548;8.778;2022-10-16T01:25:54;13.8;;;9.5;;
51491;SDS011;37569;50.548;8.778;2022-10-16T01:30:49;13.4;;;9.3;;
51491;SDS011;37569;50.548;8.778;2022-10-16T01:35:51;10.2;;;8.3;;
51491;SDS011;37569;50.548;8.778;2022-10-16T01:40:50;11;;;7.7;;
51491;SDS011;37569;50.548;8.778;2022-10-16T01:45:51;9.1;;;7.3;;
51491;SDS011;37569;50.548;8.778;2022-10-16T01:50:52;10.2;;;7.1;;
51491;SDS011;37569;50.548;8.778;2022-10-16T01:55:52;11.9;;;7.2;;
51491;SDS011;37569;50.548;8.778;2022-10-16T02:00:52;9;;;7;;
51491;SDS011;37569;50.548;8.778;2022-10-16T02:05:54;10.2;;;6.9;;
51491;SDS011;37569;50.548;8.778;2022-10-16T02:10:54;9.5;;;6.9;;
51491;SDS011;37569;50.548;8.778;2022-10-16T02:15:54;9.1;;;6.8;;
51491;SDS011;37569;50.548;8.778;2022-10-16T02:20:55;9.7;;;7.3;;
51491;SDS011;37569;50.548;8.778;2022-10-16T02:25:55;10.8;;;7.2;;
51491;SDS011;37569;50.548;8.778;2022-10-16T02:30:56;10.2;;;8.3;;
51491;SDS011;37569;50.548;8.778;2022-10-16T02:35:56;14.5;;;8.8;;
51491;SDS011;37569;50.548;8.778;2022-10-16T02:40:57;16.5;;;9.9;;
51491;SDS011;37569;50.548;8.778;2022-10-16T02:45:57;19.2;;;11.7;;
51491;SDS011;37569;50.548;8.778;2022-10-16T02:50:58;25.8;;;12.4;;
51491;SDS011;37569;50.548;8.778;2022-10-16T02:55:58;23.7;;;13.4;;
51491;SDS011;37569;50.548;8.778;2022-10-16T03:00:59;30.2;;;15.5;;
51491;SDS011;37569;50.548;8.778;2022-10-16T03:06:00;32.3;;;16;;
51491;SDS011;37569;50.548;8.778;2022-10-16T03:11:00;33.7;;;17.1;;
51491;SDS011;37569;50.548;8.778;2022-10-16T03:16:01;35;;;17.5;;
51491;SDS011;37569;50.548;8.778;2022-10-16T03:21:01;36.8;;;17.8;;
51491;SDS011;37569;50.548;8.778;2022-10-16T03:26:02;37.2;;;18.4;;
51491;SDS011;37569;50.548;8.778;2022-10-16T03:31:03;40.8;;;18.9;;
51491;SDS011;37569;50.548;8.778;2022-10-16T03:36:03;42.9;;;19;;
51491;SDS011;37569;50.548;8.778;2022-10-16T03:41:04;37.9;;;17.8;;
51491;SDS011;37569;50.548;8.778;2022-10-16T03:46:04;40.3;;;18.9;;
51491;SDS011;37569;50.548;8.778;2022-10-16T03:51:05;43.3;;;19.7;;
51491;SDS011;37569;50.548;8.778;2022-10-16T03:56:06;40.4;;;19.1;;
51491;SDS011;37569;50.548;8.778;2022-10-16T04:01:06;37.6;;;18.3;;
51491;SDS011;37569;50.548;8.778;2022-10-16T04:06:07;39.7;;;18.1;;
51491;SDS011;37569;50.548;8.778;2022-10-16T04:11:07;38.7;;;17.8;;
51491;SDS011;37569;50.548;8.778;2022-10-16T04:16:08;37;;;17.4;;
51491;SDS011;37569;50.548;8.778;2022-10-16T04:21:08;31.1;;;16;;
51491;SDS011;37569;50.548;8.778;2022-10-16T04:26:09;29.7;;;15.4;;
51491;SDS011;37569;50.548;8.778;2022-10-16T04:31:10;21.9;;;12.5;;
51491;SDS011;37569;50.548;8.778;2022-10-16T04:36:10;15.2;;;10.3;;
51491;SDS011;37569;50.548;8.778;2022-10-16T04:41:11;12.8;;;7.2;;
51491;SDS011;37569;50.548;8.778;2022-10-16T04:46:11;8.8;;;5.7;;
51491;SDS011;37569;50.548;8.778;2022-10-16T04:51:12;5.5;;;4.3;;
51491;SDS011;37569;50.548;8.778;2022-10-16T04:56:12;5.6;;;3.5;;
51491;SDS011;37569;50.548;8.778;2022-10-16T05:01:13;5.9;;;3.1;;
51491;SDS011;37569;50.548;8.778;2022-10-16T05:06:14;7;;;3.7;;
51491;SDS011;37569;50.548;8.778;2022-10-16T05:11:14;3.8;;;2.9;;
51491;SDS011;37569;50.548;8.778;2022-10-16T05:16:15;4;;;2.9;;
51491;SDS011;37569;50.548;8.778;2022-10-16T05:21:15;4.7;;;2.5;;
51491;SDS011;37569;50.548;8.778;2022-10-16T05:26:16;6.9;;;2.8;;
51491;SDS011;37569;50.548;8.778;2022-10-16T05:31:16;3.9;;;2.5;;
51491;SDS011;37569;50.548;8.778;2022-10-16T05:36:17;3;;;2.3;;
51491;SDS011;37569;50.548;8.778;2022-10-16T05:41:17;4.5;;;2.3;;
51491;SDS011;37569;50.548;8.778;2022-10-16T05:46:18;4.9;;;2.2;;
51491;SDS011;37569;50.548;8.778;2022-10-16T05:51:18;3.9;;;2.4;;
51491;SDS011;37569;50.548;8.778;2022-10-16T05:56:19;3.6;;;2.4;;
51491;SDS011;37569;50.548;8.778;2022-10-16T06:01:19;4.2;;;3.5;;
51491;SDS011;37569;50.548;8.778;2022-10-16T06:06:20;5.2;;;2.8;;
51491;SDS011;37569;50.548;8.778;2022-10-16T06:11:21;4.7;;;3.6;;
51491;SDS011;37569;50.548;8.778;2022-10-16T06:16:21;7.7;;;4.3;;
51491;SDS011;37569;50.548;8.778;2022-10-16T06:21:22;8.3;;;6.8;;
51491;SDS011;37569;50.548;8.778;2022-10-16T06:26:23;8.6;;;7.4;;
51491;SDS011;37569;50.548;8.778;2022-10-16T06:31:23;11.5;;;8.5;;
51491;SDS011;37569;50.548;8.778;2022-10-16T06:36:23;11.9;;;8.8;;
51491;SDS011;37569;50.548;8.778;2022-10-16T06:41:23;12;;;8.9;;
51491;SDS011;37569;50.548;8.778;2022-10-16T06:46:25;11.9;;;8.9;;
51491;SDS011;37569;50.548;8.778;2022-10-16T06:51:25;12.8;;;9.4;;
51491;SDS011;37569;50.548;8.778;2022-10-16T06:56:26;15;;;9.4;;
51491;SDS011;37569;50.548;8.778;2022-10-16T07:01:26;10.9;;;8.8;;
51491;SDS011;37569;50.548;8.778;2022-10-16T07:06:26;10.5;;;8;;
51491;SDS011;37569;50.548;8.778;2022-10-16T07:11:27;12.8;;;8;;
51491;SDS011;37569;50.548;8.778;2022-10-16T07:16:28;12.1;;;7.8;;
51491;SDS011;37569;50.548;8.778;2022-10-16T07:21:28;11;;;7.2;;
51491;SDS011;37569;50.548;8.778;2022-10-16T07:26:29;9.6;;;7.1;;
51491;SDS011;37569;50.548;8.778;2022-10-16T07:31:29;9.5;;;7.2;;
51491;SDS011;37569;50.548;8.778;2022-10-16T07:36:30;8.4;;;6.4;;
51491;SDS011;37569;50.548;8.778;2022-10-16T07:41:30;8.7;;;6.4;;
51491;SDS011;37569;50.548;8.778;2022-10-16T07:46:31;8;;;6.4;;
51491;SDS011;37569;50.548;8.778;2022-10-16T07:51:32;8.4;;;6.5;;
51491;SDS011;37569;50.548;8.778;2022-10-16T07:56:32;7.8;;;6.6;;
51491;SDS011;37569;50.548;8.778;2022-10-16T08:01:33;8.9;;;6.7;;
51491;SDS011;37569;50.548;8.778;2022-10-16T08:06:35;7.7;;;6.2;;
51491;SDS011;37569;50.548;8.778;2022-10-16T08:11:34;9.8;;;6.6;;
51491;SDS011;37569;50.548;8.778;2022-10-16T08:16:34;8.7;;;6;;
51491;SDS011;37569;50.548;8.778;2022-10-16T08:21:35;6.7;;;5.9;;
51491;SDS011;37569;50.548;8.778;2022-10-16T08:26:35;7.5;;;5.4;;
51491;SDS011;37569;50.548;8.778;2022-10-16T08:31:36;7.3;;;5.2;;
51491;SDS011;37569;50.548;8.778;2022-10-16T08:36:37;5.6;;;4.7;;
51491;SDS011;37569;50.548;8.778;2022-10-16T08:41:47;5.7;;;4.9;;
51491;SDS011;37569;50.548;8.778;2022-10-16T08:46:41;7.6;;;4.8;;
51491;SDS011;37569;50.548;8.778;2022-10-16T08:51:39;5.5;;;4.3;;
51491;SDS011;37569;50.548;8.778;2022-10-16T08:56:39;6.2;;;4.2;;
51491;SDS011;37569;50.548;8.778;2022-10-16T09:01:41;6.4;;;3.9;;
51491;SDS011;37569;50.548;8.778;2022-10-16T09:06:43;5.1;;;3.5;;
51491;SDS011;37569;50.548;8.778;2022-10-16T09:11:44;6.2;;;4.5;;
51491;SDS011;37569;50.548;8.778;2022-10-16T09:16:43;4.2;;;3.8;;
51491;SDS011;37569;50.548;8.778;2022-10-16T09:21:43;3.6;;;3.3;;
51491;SDS011;37569;50.548;8.778;2022-10-16T09:26:43;3.5;;;3.2;;
51491;SDS011;37569;50.548;8.778;2022-10-16T09:31:44;3.8;;;3.4;;
51491;SDS011;37569;50.548;8.778;2022-10-16T09:36:45;4.2;;;2.5;;
51491;SDS011;37569;50.548;8.778;2022-10-16T09:41:45;2.8;;;2.5;;
51491;SDS011;37569;50.548;8.778;2022-10-16T09:46:46;2.6;;;2.3;;
51491;SDS011;37569;50.548;8.778;2022-10-16T09:51:46;3;;;1.8;;
51491;SDS011;37569;50.548;8.778;2022-10-16T09:56:47;3.2;;;1.7;;
51491;SDS011;37569;50.548;8.778;2022-10-16T10:01:49;1.7;;;1.6;;
51491;SDS011;37569;50.548;8.778;2022-10-16T10:06:49;3.5;;;1.6;;
51491;SDS011;37569;50.548;8.778;2022-10-16T10:11:50;1.4;;;1.3;;
51491;SDS011;37569;50.548;8.778;2022-10-16T10:16:50;2.4;;;1.5;;
51491;SDS011;37569;50.548;8.778;2022-10-16T10:21:51;3.2;;;1.5;;
51491;SDS011;37569;50.548;8.778;2022-10-16T10:26:54;2;;;1.5;;
51491;SDS011;37569;50.548;8.778;2022-10-16T10:31:54;3.1;;;1.6;;
51491;SDS011;37569;50.548;8.778;2022-10-16T10:36:54;2.4;;;1.5;;
51491;SDS011;37569;50.548;8.778;2022-10-16T10:42:00;2;;;1.3;;
51491;SDS011;37569;50.548;8.778;2022-10-16T10:46:55;2.8;;;1.3;;
51491;SDS011;37569;50.548;8.778;2022-10-16T10:51:58;1.6;;;1.2;;
51491;SDS011;37569;50.548;8.778;2022-10-16T10:56:57;2.1;;;1.1;;
51491;SDS011;37569;50.548;8.778;2022-10-16T11:01:58;2.5;;;1.3;;
51491;SDS011;37569;50.548;8.778;2022-10-16T11:06:58;2.9;;;1.3;;
51491;SDS011;37569;50.548;8.778;2022-10-16T11:11:59;2.8;;;1.3;;
51491;SDS011;37569;50.548;8.778;2022-10-16T11:17:01;5.1;;;1.2;;
51491;SDS011;37569;50.548;8.778;2022-10-16T11:22:01;2.3;;;1.3;;
51491;SDS011;37569;50.548;8.778;2022-10-16T11:27:00;2.3;;;1.4;;
51491;SDS011;37569;50.548;8.778;2022-10-16T11:32:04;1.7;;;1.2;;
51491;SDS011;37569;50.548;8.778;2022-10-16T11:37:02;3.1;;;1.4;;
51491;SDS011;37569;50.548;8.778;2022-10-16T11:42:03;2.8;;;1.3;;
51491;SDS011;37569;50.548;8.778;2022-10-16T11:47:07;1.9;;;1.1;;
51491;SDS011;37569;50.548;8.778;2022-10-16T11:52:06;1.4;;;1.1;;
51491;SDS011;37569;50.548;8.778;2022-10-16T11:57:09;2.4;;;1.1;;
51491;SDS011;37569;50.548;8.778;2022-10-16T12:02:12;2;;;1.2;;
51491;SDS011;37569;50.548;8.778;2022-10-16T12:07:06;1.2;;;1.1;;
51491;SDS011;37569;50.548;8.778;2022-10-16T12:12:22;2.5;;;1.2;;
51491;SDS011;37569;50.548;8.778;2022-10-16T12:17:25;1.7;;;1.4;;
51491;SDS011;37569;50.548;8.778;2022-10-16T12:22:15;2.2;;;1.3;;
51491;SDS011;37569;50.548;8.778;2022-10-16T12:27:20;1.4;;;1.3;;
51491;SDS011;37569;50.548;8.778;2022-10-16T12:32:21;1.5;;;1.1;;
51491;SDS011;37569;50.548;8.778;2022-10-16T12:37:12;1.4;;;1.2;;
51491;SDS011;37569;50.548;8.778;2022-10-16T12:42:20;1.9;;;1.2;;
51491;SDS011;37569;50.548;8.778;2022-10-16T12:47:18;2;;;1.1;;
51491;SDS011;37569;50.548;8.778;2022-10-16T12:52:35;1.3;;;1.2;;
51491;SDS011;37569;50.548;8.778;2022-10-16T12:57:19;3.3;;;1.4;;
51491;SDS011;37569;50.548;8.778;2022-10-16T13:02:20;3.2;;;1.3;;
51491;SDS011;37569;50.548;8.778;2022-10-16T13:07:17;1.7;;;1.6;;
51491;SDS011;37569;50.548;8.778;2022-10-16T13:12:19;3.4;;;2.2;;
51491;SDS011;37569;50.548;8.778;2022-10-16T13:17:18;2.2;;;2;;
51491;SDS011;37569;50.548;8.778;2022-10-16T13:22:19;4;;;2.3;;
51491;SDS011;37569;50.548;8.778;2022-10-16T13:27:20;3.1;;;2.4;;
51491;SDS011;37569;50.548;8.778;2022-10-16T13:32:19;3.9;;;2.3;;
51491;SDS011;37569;50.548;8.778;2022-10-16T13:37:20;2.6;;;2.3;;
51491;SDS011;37569;50.548;8.778;2022-10-16T13:42:22;4.2;;;2.4;;
51491;SDS011;37569;50.548;8.778;2022-10-16T13:47:22;3.4;;;2.1;;
51491;SDS011;37569;50.548;8.778;2022-10-16T13:52:22;3.2;;;2.1;;
51491;SDS011;37569;50.548;8.778;2022-10-16T13:57:23;3.2;;;2.2;;
51491;SDS011;37569;50.548;8.778;2022-10-16T14:02:25;2.7;;;2;;
51491;SDS011;37569;50.548;8.778;2022-10-16T14:07:25;3.1;;;2.3;;
51491;SDS011;37569;50.548;8.778;2022-10-16T14:12:25;3.2;;;2;;
51491;SDS011;37569;50.548;8.778;2022-10-16T14:17:26;2.2;;;1.7;;
51491;SDS011;37569;50.548;8.778;2022-10-16T14:22:28;3;;;1.8;;
51491;SDS011;37569;50.548;8.778;2022-10-16T14:27:29;2.1;;;1.8;;
51491;SDS011;37569;50.548;8.778;2022-10-16T14:32:28;2.6;;;1.7;;
51491;SDS011;37569;50.548;8.778;2022-10-16T14:37:29;3.6;;;2.1;;
51491;SDS011;37569;50.548;8.778;2022-10-16T14:42:29;3.7;;;2.1;;
51491;SDS011;37569;50.548;8.778;2022-10-16T14:47:30;5.6;;;2.2;;
51491;SDS011;37569;50.548;8.778;2022-10-16T14:52:31;3.5;;;2.1;;
51491;SDS011;37569;50.548;8.778;2022-10-16T14:57:32;3.5;;;2.2;;
51491;SDS011;37569;50.548;8.778;2022-10-16T15:02:33;4.5;;;2.1;;
51491;SDS011;37569;50.548;8.778;2022-10-16T15:07:33;2.4;;;2.1;;
51491;SDS011;37569;50.548;8.778;2022-10-16T15:12:34;2.1;;;1.8;;
51491;SDS011;37569;50.548;8.778;2022-10-16T15:17:35;3.6;;;1.9;;
51491;SDS011;37569;50.548;8.778;2022-10-16T15:22:35;4.6;;;1.8;;
51491;SDS011;37569;50.548;8.778;2022-10-16T15:27:36;5;;;2.2;;
51491;SDS011;37569;50.548;8.778;2022-10-16T15:32:37;2.7;;;1.7;;
51491;SDS011;37569;50.548;8.778;2022-10-16T15:37:38;3.2;;;2;;
51491;SDS011;37569;50.548;8.778;2022-10-16T15:42:38;3.4;;;2;;
51491;SDS011;37569;50.548;8.778;2022-10-16T15:47:40;2.8;;;2.1;;
51491;SDS011;37569;50.548;8.778;2022-10-16T15:52:40;3.8;;;2.3;;
51491;SDS011;37569;50.548;8.778;2022-10-16T15:57:41;2.7;;;2.4;;
51491;SDS011;37569;50.548;8.778;2022-10-16T16:02:42;3.1;;;2.7;;
51491;SDS011;37569;50.548;8.778;2022-10-16T16:07:42;2.9;;;2.6;;
51491;SDS011;37569;50.548;8.778;2022-10-16T16:12:43;4.4;;;2.9;;
51491;SDS011;37569;50.548;8.778;2022-10-16T16:17:44;5.2;;;3;;
51491;SDS011;37569;50.548;8.778;2022-10-16T16:22:44;4.1;;;3;;
51491;SDS011;37569;50.548;8.778;2022-10-16T16:27:45;6.2;;;3.5;;
51491;SDS011;37569;50.548;8.778;2022-10-16T16:32:46;3.6;;;3.1;;
51491;SDS011;37569;50.548;8.778;2022-10-16T16:37:46;4.4;;;3.3;;
51491;SDS011;37569;50.548;8.778;2022-10-16T16:42:47;3.7;;;3.2;;
51491;SDS011;37569;50.548;8.778;2022-10-16T16:47:48;3.7;;;3.3;;
51491;SDS011;37569;50.548;8.778;2022-10-16T16:52:48;6.2;;;3.5;;
51491;SDS011;37569;50.548;8.778;2022-10-16T16:57:49;4.7;;;3.4;;
51491;SDS011;37569;50.548;8.778;2022-10-16T17:02:50;4.1;;;3.7;;
51491;SDS011;37569;50.548;8.778;2022-10-16T17:07:50;4.4;;;4;;
51491;SDS011;37569;50.548;8.778;2022-10-16T17:12:51;4.5;;;4;;
51491;SDS011;37569;50.548;8.778;2022-10-16T17:17:52;4.8;;;4.3;;
51491;SDS011;37569;50.548;8.778;2022-10-16T17:22:52;5.4;;;4.2;;
51491;SDS011;37569;50.548;8.778;2022-10-16T17:27:53;5.7;;;4.2;;
51491;SDS011;37569;50.548;8.778;2022-10-16T17:32:54;6.1;;;4.6;;
51491;SDS011;37569;50.548;8.778;2022-10-16T17:37:54;6.9;;;4.7;;
51491;SDS011;37569;50.548;8.778;2022-10-16T17:42:55;6.1;;;4.8;;
51491;SDS011;37569;50.548;8.778;2022-10-16T17:47:57;7.3;;;6.1;;
51491;SDS011;37569;50.548;8.778;2022-10-16T17:52:56;6.3;;;5.7;;
51491;SDS011;37569;50.548;8.778;2022-10-16T17:57:57;6.3;;;5.7;;
51491;SDS011;37569;50.548;8.778;2022-10-16T18:02:58;7.9;;;7.1;;
51491;SDS011;37569;50.548;8.778;2022-10-16T18:07:58;9.9;;;8.3;;
51491;SDS011;37569;50.548;8.778;2022-10-16T18:12:59;9.5;;;8.5;;
51491;SDS011;37569;50.548;8.778;2022-10-16T18:18:00;9.7;;;8.8;;
51491;SDS011;37569;50.548;8.778;2022-10-16T18:23:00;9.5;;;8.1;;
51491;SDS011;37569;50.548;8.778;2022-10-16T18:28:01;8.3;;;7.2;;
51491;SDS011;37569;50.548;8.778;2022-10-16T18:33:02;8.7;;;6.8;;
51491;SDS011;37569;50.548;8.778;2022-10-16T18:38:02;7.8;;;6.2;;
51491;SDS011;37569;50.548;8.778;2022-10-16T18:43:03;7.4;;;6.2;;
51491;SDS011;37569;50.548;8.778;2022-10-16T18:48:04;7.2;;;6.5;;
51491;SDS011;37569;50.548;8.778;2022-10-16T18:53:04;9.1;;;6.7;;
51491;SDS011;37569;50.548;8.778;2022-10-16T18:58:05;8.1;;;6.9;;
51491;SDS011;37569;50.548;8.778;2022-10-16T19:03:06;7;;;6.1;;
51491;SDS011;37569;50.548;8.778;2022-10-16T19:08:06;18;;;11.5;;
51491;SDS011;37569;50.548;8.778;2022-10-16T19:13:07;13.1;;;10;;
51491;SDS011;37569;50.548;8.778;2022-10-16T19:18:08;12.1;;;8.8;;
51491;SDS011;37569;50.548;8.778;2022-10-16T19:23:08;11.4;;;10;;
51491;SDS011;37569;50.548;8.778;2022-10-16T19:28:09;11.9;;;9.8;;
51491;SDS011;37569;50.548;8.778;2022-10-16T19:33:09;10.9;;;9.5;;
51491;SDS011;37569;50.548;8.778;2022-10-16T19:38:10;10;;;8.6;;
51491;SDS011;37569;50.548;8.778;2022-10-16T19:43:11;10.2;;;8.3;;
51491;SDS011;37569;50.548;8.778;2022-10-16T19:48:11;9.8;;;7.8;;
51491;SDS011;37569;50.548;8.778;2022-10-16T19:53:12;9;;;7.9;;
51491;SDS011;37569;50.548;8.778;2022-10-16T19:58:12;9.2;;;7.2;;
51491;SDS011;37569;50.548;8.778;2022-10-16T20:03:13;10.2;;;7.8;;
51491;SDS011;37569;50.548;8.778;2022-10-16T20:08:14;10.1;;;6.9;;
51491;SDS011;37569;50.548;8.778;2022-10-16T20:13:18;10.8;;;7.5;;
51491;SDS011;37569;50.548;8.778;2022-10-16T20:18:15;10;;;7.1;;
51491;SDS011;37569;50.548;8.778;2022-10-16T20:23:16;11.8;;;6.6;;
51491;SDS011;37569;50.548;8.778;2022-10-16T20:28:16;8.7;;;6.9;;
51491;SDS011;37569;50.548;8.778;2022-10-16T20:33:17;8.6;;;6.2;;
51491;SDS011;37569;50.548;8.778;2022-10-16T20:38:17;8.5;;;6.2;;
51491;SDS011;37569;50.548;8.778;2022-10-16T20:43:18;9.1;;;6.7;;
51491;SDS011;37569;50.548;8.778;2022-10-16T20:48:19;10.7;;;6.1;;
51491;SDS011;37569;50.548;8.778;2022-10-16T20:53:20;10.5;;;7;;
51491;SDS011;37569;50.548;8.778;2022-10-16T20:58:24;7.8;;;6.5;;
51491;SDS011;37569;50.548;8.778;2022-10-16T21:03:21;8.7;;;5.8;;
51491;SDS011;37569;50.548;8.778;2022-10-16T21:08:21;9.7;;;6;;
51491;SDS011;37569;50.548;8.778;2022-10-16T21:13:22;9.4;;;5.6;;
51491;SDS011;37569;50.548;8.778;2022-10-16T21:18:22;7.2;;;6;;
51491;SDS011;37569;50.548;8.778;2022-10-16T21:23:23;9.2;;;6.2;;
51491;SDS011;37569;50.548;8.778;2022-10-16T21:28:24;8.2;;;6;;
51491;SDS011;37569;50.548;8.778;2022-10-16T21:33:24;8.5;;;5.5;;
51491;SDS011;37569;50.548;8.778;2022-10-16T21:38:25;7.5;;;5;;
51491;SDS011;37569;50.548;8.778;2022-10-16T21:43:25;8.3;;;5.2;;
51491;SDS011;37569;50.548;8.778;2022-10-16T21:48:26;7.5;;;5.1;;
51491;SDS011;37569;50.548;8.778;2022-10-16T21:53:27;6.7;;;5;;
51491;SDS011;37569;50.548;8.778;2022-10-16T21:58:29;6.3;;;4.9;;
51491;SDS011;37569;50.548;8.778;2022-10-16T22:03:28;7.2;;;4.7;;
51491;SDS011;37569;50.548;8.778;2022-10-16T22:08:29;7.1;;;4.8;;
51491;SDS011;37569;50.548;8.778;2022-10-16T22:13:29;7.4;;;4.5;;
51491;SDS011;37569;50.548;8.778;2022-10-16T22:18:31;9.4;;;4.6;;
51491;SDS011;37569;50.548;8.778;2022-10-16T22:23:30;6;;;4.3;;
51491;SDS011;37569;50.548;8.778;2022-10-16T22:28:31;6.9;;;4.3;;
51491;SDS011;37569;50.548;8.778;2022-10-16T22:33:32;6.1;;;4.3;;
51491;SDS011;37569;50.548;8.778;2022-10-16T22:38:33;5.9;;;3.9;;
51491;SDS011;37569;50.548;8.778;2022-10-16T22:43:33;7;;;4;;
51491;SDS011;37569;50.548;8.778;2022-10-16T22:48:34;5.3;;;3.6;;
51491;SDS011;37569;50.548;8.778;2022-10-16T22:53:34;7.3;;;4;;
51491;SDS011;37569;50.548;8.778;2022-10-16T22:58:35;6.7;;;4.1;;
51491;SDS011;37569;50.548;8.778;2022-10-16T23:03:36;6.6;;;4;;
51491;SDS011;37569;50.548;8.778;2022-10-16T23:08:36;7.4;;;3.7;;
51491;SDS011;37569;50.548;8.778;2022-10-16T23:13:37;7.6;;;3.8;;
51491;SDS011;37569;50.548;8.778;2022-10-16T23:18:37;4.1;;;3.6;;
51491;SDS011;37569;50.548;8.778;2022-10-16T23:23:39;6.6;;;3.9;;
51491;SDS011;37569;50.548;8.778;2022-10-16T23:28:39;5.5;;;3.9;;
51491;SDS011;37569;50.548;8.778;2022-10-16T23:33:39;6.1;;;3.9;;
51491;SDS011;37569;50.548;8.778;2022-10-16T23:38:40;5.4;;;3.8;;
51491;SDS011;37569;50.548;8.778;2022-10-16T23:43:40;8.5;;;4.3;;
51491;SDS011;37569;50.548;8.778;2022-10-16T23:48:41;7.5;;;4.5;;
51491;SDS011;37569;50.548;8.778;2022-10-16T23:53:42;10.3;;;4.9;;
51491;SDS011;37569;50.548;8.778;2022-10-16T23:58:42;6.6;;;4.7;;
